Latest Coastal Weather Observations for Eucla

IDW60701

Issued at 10:12 am WST Tuesday 25 June 2024 (issued every 10 minutes, with the page automatically refreshed every 10 minutes)

About coastal observations | Map of coastal stations | Coastal observations for WA | Marine services | Other Formats
Station Details ID: 011003 Name: EUCLA Lat: -31.68 Lon: 128.90 Height: 93.1 m
Data from the previous 72 hours. | See also: Recent months at Eucla
Date/Time
WST
Wind Sea
Height
m
Swell Vis
km
Cloud Weather Temp
°C
Press
MSL
hPa
Rain since
9am
mm
Dir  Spd
kts
Gust
kts
Height
m
Period
s
Dir
25/10:00am WNW 10 16 - - - - - - - 13.5 1014.9 0.0
25/09:30am WNW 10 16 - - - - - - - 12.9 1015.0 0.0
25/09:00am WNW 11 17 - - - - - - - 11.7 1014.9 0.2
25/08:30am WNW 10 16 - - - - - - - 11.0 1014.5 0.2
25/08:00am WNW 11 16 - - - - - - - 9.3 1014.3 0.2
25/07:30am WNW 9 14 - - - - - - - 8.3 1014.3 0.2
25/07:00am WNW 10 15 - - - - - - - 7.7 1014.1 0.2
25/06:30am WNW 11 17 - - - - - - - 7.2 1013.9 0.2
25/06:00am WNW 11 16 - - - - - - - 7.1 1013.8 0.2
25/05:30am WNW 9 14 - - - - - - - 7.1 1013.7 0.2
25/05:00am WNW 8 11 - - - - - - - 7.1 1013.5 0.2
25/04:30am WNW 8 11 - - - - - - - 7.3 1013.3 0.2
25/04:00am WNW 9 13 - - - - - - - 7.4 1013.3 0.2
25/03:30am WNW 9 15 - - - - - - - 7.5 1013.2 0.2
25/03:00am WNW 10 15 - - - - - - - 7.5 1013.4 0.2
25/02:30am WNW 8 12 - - - - - - - 7.6 1013.6 0.2
25/02:00am WNW 7 11 - - - - - - - 7.9 1013.9 0.2
25/01:30am NW 9 14 - - - - - - - 8.0 1014.0 0.2
25/01:00am WNW 7 10 - - - - - - - 8.3 1014.2 0.2
25/12:30am WNW 7 11 - - - - - - - 9.3 1014.4 0.2
25/12:00am WNW 8 12 - - - - - - Recent precip. 9.3 1014.6 0.2
 
Date/Time
WST
Wind Sea
Height
m
Swell Vis
km
Cloud Weather Temp
°C
Press
MSL
hPa
Rain since
9am
mm
Dir  Spd
kts
Gust
kts
Height
m
Period
s
Dir
24/11:30pm W 8 10 - - - - - - - 9.6 1014.8 0.0
24/11:00pm W 11 18 - - - - - - - 10.2 1015.2 0.0
24/10:30pm WNW 9 15 - - - - - - - 9.9 1015.1 0.0
24/10:00pm NW 9 16 - - - - - - - 9.9 1015.4 0.0
24/09:30pm WNW 9 13 - - - - - - - 10.1 1015.6 0.0
24/09:00pm NW 8 11 - - - - - - - 10.1 1015.7 0.0
24/08:30pm NW 7 10 - - - - - - - 10.6 1015.6 0.0
24/08:00pm WNW 8 12 - - - - - - - 11.4 1015.8 0.0
24/07:30pm WNW 8 12 - - - - - - - 11.3 1016.0 0.0
24/07:00pm WNW 7 11 - - - - - - - 11.6 1016.3 0.0
24/06:30pm W 7 9 - - - - - - - 11.7 1016.2 0.0
24/06:00pm W 6 10 - - - - - - - 11.9 1016.1 0.0
24/05:30pm W 9 16 - - - - - - - 11.5 1016.0 0.0
24/05:00pm WSW 8 12 - - - - - - - 11.4 1015.8 0.0
24/04:30pm W 8 13 - - - - - - - 12.8 1015.5 0.0
24/04:00pm WSW 8 13 - - - - - - - 13.2 1015.6 0.0
24/03:30pm SW 9 16 - - - - - - - 14.4 1015.4 0.0
24/03:00pm WSW 9 15 - - - - - - - 15.7 1015.3 0.0
24/02:30pm W 8 14 - - - - - - - 14.8 1015.3 0.0
24/02:00pm W 11 17 - - - - - - - 15.3 1015.6 0.0
24/01:30pm W 11 18 - - - - - - - 14.9 1015.8 0.0
24/01:00pm W 11 18 - - - - - - - 15.5 1016.0 0.0
24/12:30pm W 9 14 - - - - - - - 14.8 1016.4 0.0
24/12:12pm W 15 26 - - - - - - - 14.1 1016.8 0.0
24/12:00pm W 12 19 - - - - - - - 15.0 1016.9 0.0
24/11:30am W 13 18 - - - - - - - 14.6 1017.4 0.0
24/11:00am WSW 10 17 - - - - - - - 15.1 1017.8 0.0
24/10:30am W 11 16 - - - - - - - 15.4 1018.3 0.0
24/10:00am W 10 16 - - - - - - - 15.0 1018.5 0.0
24/09:30am W 9 14 - - - - - - - 14.2 1018.6 0.0
24/09:00am W 10 16 - - - - - - - 13.1 1018.6 0.6
24/08:30am WNW 9 13 - - - - - - - 12.3 1018.3 0.6
24/08:00am WNW 8 11 - - - - - - - 11.2 1018.2 0.6
24/07:30am WNW 8 13 - - - - - - - 10.2 1018.3 0.6
24/07:00am WNW 8 10 - - - - - - - 9.8 1018.4 0.6
24/06:30am WNW 8 11 - - - - - - - 9.2 1018.2 0.4
24/06:00am WNW 9 15 - - - - - - - 9.1 1017.9 0.4
24/05:30am WNW 9 14 - - - - - - - 8.5 1017.6 0.4
24/05:00am WNW 8 11 - - - - - - - 8.3 1017.6 0.4
24/04:30am WNW 7 10 - - - - - - - 8.3 1017.7 0.4
24/04:00am WNW 8 11 - - - - - - - 8.6 1018.2 0.4
24/03:30am WNW 8 12 - - - - - - - 8.3 1018.3 0.4
24/03:00am WNW 9 16 - - - - - - - 8.3 1018.3 0.4
24/02:30am WNW 8 10 - - - - - - - 8.1 1018.5 0.4
24/02:00am WNW 8 12 - - - - - - - 8.2 1018.8 0.4
24/01:30am WNW 7 14 - - - - - - - 8.6 1018.9 0.4
24/01:00am WNW 9 13 - - - - - - - 9.5 1018.9 0.4
24/12:30am WNW 8 10 - - - - - - - 8.8 1018.9 0.4
24/12:00am WNW 8 12 - - - - - - - 9.3 1019.0 0.4
 
Date/Time
WST
Wind Sea
Height
m
Swell Vis
km
Cloud Weather Temp
°C
Press
MSL
hPa
Rain since
9am
mm
Dir  Spd
kts
Gust
kts
Height
m
Period
s
Dir
23/11:30pm WNW 8 10 - - - - - - - 9.5 1019.4 0.4
23/11:00pm WNW 7 10 - - - - - - - 9.0 1019.6 0.4
23/10:30pm WNW 5 7 - - - - - - - 9.0 1019.8 0.4
23/10:00pm WNW 6 8 - - - - - - - 9.8 1019.9 0.4
23/09:30pm WNW 7 10 - - - - - - - 10.5 1020.1 0.4
23/09:00pm W 8 13 - - - - - - Recent precip. 10.0 1020.2 0.4
23/08:30pm W 6 8 - - - - - - - 10.6 1020.3 0.2
23/08:00pm WSW 7 11 - - - - - - - 11.1 1020.3 0.2
23/07:30pm WSW 9 14 - - - - - - - 11.7 1020.5 0.2
23/07:00pm W 8 15 - - - - - - - 11.3 1020.3 0.2
23/06:30pm WSW 12 24 - - - - - - - 11.2 1020.4 0.2
23/06:00pm WSW 7 11 - - - - - - - 12.6 1019.8 0.2
23/05:30pm WSW 8 12 - - - - - - - 12.5 1019.6 0.2
23/05:00pm WSW 7 10 - - - - - - - 13.0 1019.3 0.2
23/04:30pm SW 8 12 - - - - - - - 13.8 1018.9 0.2
23/04:00pm SW 7 10 - - - - - - - 14.3 1018.6 0.2
23/03:30pm SW 10 14 - - - - - - - 15.2 1018.4 0.2
23/03:00pm WSW 11 18 - - - - - - - 17.1 1017.9 0.2
23/02:30pm W 11 17 - - - - - - - 18.0 1017.9 0.2
23/02:00pm W 9 15 - - - - - - - 18.3 1018.0 0.2
23/01:30pm W 12 18 - - - - - - - 17.9 1018.1 0.2
23/01:00pm W 10 17 - - - - - - - 17.9 1018.4 0.2
23/12:30pm W 11 17 - - - - - - - 17.7 1018.8 0.2
23/12:00pm W 9 15 - - - - - - Rain 17.7 1019.1 0.2
23/11:30am WSW 9 16 - - - - - - - 17.5 1019.5 0.0
23/11:00am W 10 17 - - - - - - - 16.9 1019.9 0.0
23/10:30am WSW 9 13 - - - - - - - 16.8 1020.4 0.0
23/10:00am W 9 14 - - - - - - - 15.7 1020.7 0.0
23/09:30am W 10 15 - - - - - - - 14.7 1020.8 0.0
23/09:00am WNW 9 14 - - - - - - - 13.9 1020.9 0.0
23/08:30am WNW 9 12 - - - - - - - 13.0 1020.8 0.0
23/08:00am WNW 9 15 - - - - - - - 11.8 1020.4 0.0
23/07:30am WNW 8 13 - - - - - - - 10.6 1020.2 0.0
23/07:00am WNW 8 12 - - - - - - - 10.4 1019.9 0.0
23/06:30am WNW 7 11 - - - - - - - 10.4 1019.7 0.0
23/06:00am WNW 7 11 - - - - - - - 11.0 1019.6 0.0
23/05:30am W 7 12 - - - - - - - 11.4 1019.2 0.0
23/05:00am WNW 7 9 - - - - - - - 11.9 1018.9 0.0
23/04:30am WNW 6 8 - - - - - - - 10.9 1018.6 0.0
23/04:00am WNW 6 8 - - - - - - - 11.1 1018.6 0.0
23/03:30am WNW 6 8 - - - - - - - 12.5 1018.7 0.0
23/03:00am WNW 7 9 - - - - - - - 10.8 1018.9 0.0
23/02:30am NW 9 15 - - - - - - - 11.0 1018.8 0.0
23/02:00am N 11 15 - - - - - - - 11.3 1018.1 0.0
23/01:30am N 11 15 - - - - - - - 10.7 1017.8 0.0
23/01:00am N 11 15 - - - - - - - 10.4 1017.9 0.0
23/12:30am N 12 17 - - - - - - - 10.9 1018.1 0.0
23/12:00am N 11 14 - - - - - - - 10.3 1018.3 0.0
 
Date/Time
WST
Wind Sea
Height
m
Swell Vis
km
Cloud Weather Temp
°C
Press
MSL
hPa
Rain since
9am
mm
Dir  Spd
kts
Gust
kts
Height
m
Period
s
Dir
22/11:30pm N 11 15 - - - - - - - 10.3 1018.6 0.0
22/11:00pm N 10 14 - - - - - - - 10.7 1019.0 0.0
22/10:30pm N 10 13 - - - - - - - 10.8 1019.5 0.0
22/10:00pm NNE 9 14 - - - - - - - 10.6 1019.7 0.0
22/09:30pm N 9 11 - - - - - - - 11.1 1020.2 0.0
22/09:00pm N 9 11 - - - - - - - 11.0 1020.3 0.0
22/08:30pm N 9 10 - - - - - - - 11.1 1020.3 0.0
22/08:00pm N 9 12 - - - - - - - 11.9 1020.3 0.0
22/07:30pm N 9 12 - - - - - - - 12.6 1020.2 0.0
22/07:00pm N 9 12 - - - - - - - 12.6 1020.5 0.0
22/06:30pm N 8 10 - - - - - - - 13.1 1020.6 0.0
22/06:00pm N 7 9 - - - - - - - 13.8 1020.6 0.0
22/05:30pm N 7 9 - - - - - - - 14.1 1020.7 0.0
22/05:00pm N 7 9 - - - - - - - 15.3 1020.5 0.0
22/04:30pm N 7 10 - - - - - - - 16.7 1020.3 0.0
22/04:00pm N 11 16 - - - - - - - 17.8 1020.3 0.0
22/03:30pm N 10 17 - - - - - - - 18.6 1020.6 0.0
22/03:00pm N 12 18 - - - - - - - 18.7 1020.9 0.0
22/02:30pm N 12 20 - - - - - - - 19.1 1021.3 0.0
22/02:00pm N 13 19 - - - - - - - 19.5 1021.6 0.0
22/01:30pm N 13 20 - - - - - - - 19.1 1022.0 0.0
22/01:00pm N 13 22 - - - - - - - 19.4 1022.4 0.0
22/12:30pm N 14 22 - - - - - - - 18.9 1023.0 0.0
22/12:00pm N 15 26 - - - - - - - 18.8 1023.7 0.0
22/11:42am N 15 26 - - - - - - - 18.4 1024.1 0.0
22/11:30am N 15 22 - - - - - - - 18.2 1024.2 0.0
22/11:00am N 13 21 - - - - - - - 18.0 1025.1 0.0
22/10:30am N 13 18 - - - - - - - 17.2 1026.0 0.0

Other formats

Comma delimited format used in spreadsheet applications
http://www.bom.gov.au/fwo/IDW60701/IDW60701.94647.axf

JavaScript Object Notation format (JSON) in row-major order
http://www.bom.gov.au/fwo/IDW60701/IDW60701.94647.json

Data quality

Most of these data are generated automatically and are frequently updated. Quality checks on data are not normally performed. It is possible for incorrect values to appear. Refer to information at About Latest Weather Observations and please check the disclaimer before using these data.